Greenville, NC

11:30 PM EDT on September 01, 2014 (GMT -0400)
ECU Main Campus | Change Station
CLOSE
Current Station
Personal Weather Station
Location: Greenville, NC
Elevation: 59 ft
Nearby Weather Stations

Elev 59 ft 35.61 °N, 77.37 °W | Updated 40 seconds ago

Clear
Clear
80.3 °F
Feels Like 85 °F
N
1.0
Wind Variable Wind from WSW
Gusts 3.0 mph

Today
High -- | Low -- °F
--% Chance of Precip.
Yesterday
High -- | Low -- °F
Precip. -- in
6:41 AM 7:36 PM
Waxing Crescent, 47% visible
Pressure 30.08 in
Visibility 10.0 miles
Clouds Clear
Heat Index 85 °F
Dew Point 74 °F
Humidity 82%
Rainfall 0.00 in
Snow Depth Not available.
UV 0.0 out of 12
Pollen 9.40 out of 12
Air Quality Not available.
Flu Activity Not available.
METAR KPGV 020310Z AUTO 21008KT 10SM CLR 27/25 A3008 RMK AO2

More Conditions Fewer Conditions

Pressure 30.08 in
Visibility 10.0 miles
Clouds Clear
Heat Index 85 °F
Dew Point 74 °F
Humidity 82%
Rainfall 0.00 in
Snow Depth Not available.
UV 0.0 out of 12
Pollen 9.40 out of 12
Air Quality Not available.
Flu Activity Not available.
METAR KPGV 020310Z AUTO 21008KT 10SM CLR 27/25 A3008 RMK AO2

More Conditions Fewer Conditions

10-Day Weather Forecast

Almanac

Astronomy

Sep. 01, 2014 Rise Set
Actual Time 6:41 AM EDT 7:36 PM EDT
Civil Twilight 6:15 AM EDT 8:02 PM EDT
Nautical Twilight 5:44 AM EDT 8:33 PM EDT
Astronomical Twilight 5:12 AM EDT 9:05 PM EDT
Moon 1:11 PM EDT (9/1) 11:50 PM EDT (9/1)
Length of Visible Light 13h 47m
Length of Day
12h 55m
Tomorrow will be 2m 9s shorter.
Waxing Crescent, 47% of the Moon is Illuminated
Today
Waxing Crescent
Sep 2
First Quarter
Sep 8
Full
Sep 15
Last Quarter
Sep 24
New

Today's Extremes

State Highs State Lows

Community

WunderPhotos

Upload Photos

1,749,555 photos uploaded!

WunderBlogs® & News

Nearby

Snow Depth

Station Depth Elevation
No new snow has been reported.

Earthquake Activity

City Distance Mag. Time & Date
No recent earthquake activity has been reported nearby.
Minimum magnitude displayed is 2.5.

Coastal Water Temperatures

Place Temperature
No Stations Reporting

Nearby Weather Stations